Time;durP1;ratioP1;P1;durP2;ratioP2;P2;SDS_P1;SDS_P2;PMS_P1;PMS_P2;Temp;Humidity;BMP_temperature;BMP_pressure;BME280_temperature;BME280_humidity;BME280_pressure;Samples;Min_cycle;Max_cycle;Signal;HPM_P1;HPM_P2
2023/05/11 00:03:16;;;;;;;4.38;2.72;;;;;;;14.39;59.58;97519.28;10627269;27;20035;-68
2023/05/11 00:08:37;;;;;;;4.93;2.65;;;;;;;14.32;59.31;97520.31;10623612;27;20114;-67
2023/05/11 00:13:58;;;;;;;5.95;2.47;;;;;;;14.21;59.22;97519.09;10604113;27;20618;-68
2023/05/11 00:19:18;;;;;;;5.30;2.42;;;;;;;14.25;59.10;97516.47;10617698;27;20035;-66
2023/05/11 00:24:39;;;;;;;4.57;2.65;;;;;;;14.24;58.68;97514.28;10617365;27;20171;-67
2023/05/11 00:30:00;;;;;;;5.32;2.70;;;;;;;14.23;58.56;97518.47;10624768;27;20122;-68
2023/05/11 00:35:21;;;;;;;4.57;2.53;;;;;;;14.16;58.65;97511.09;10610838;27;20227;-68
2023/05/11 00:40:41;;;;;;;4.55;2.55;;;;;;;14.14;58.44;97514.53;10610722;27;20118;-67
2023/05/11 00:46:02;;;;;;;4.07;2.20;;;;;;;14.08;58.31;97516.28;10625021;27;20073;-68
2023/05/11 00:51:23;;;;;;;6.55;2.28;;;;;;;14.02;58.53;97506.22;10610073;27;20118;-67
2023/05/11 00:56:44;;;;;;;5.40;2.40;;;;;;;13.85;58.52;97509.56;10610276;27;20560;-67
2023/05/11 01:02:05;;;;;;;5.28;2.50;;;;;;;13.69;58.37;97514.31;10609491;27;20172;-67
2023/05/11 01:07:34;;;;;;;5.45;2.22;;;;;;;13.55;58.68;97510.81;10609833;27;20070;-68
2023/05/11 01:13:08;;;;;;;5.43;1.98;;;;;;;13.47;59.05;97516.72;10609723;27;20043;-68
2023/05/11 01:18:45;;;;;;;3.63;1.92;;;;;;;13.46;58.83;97515.97;10596155;27;20477;-68
2023/05/11 01:24:21;;;;;;;3.60;1.70;;;;;;;13.36;59.03;97520.34;10596030;27;20058;-67
2023/05/11 01:29:46;;;;;;;3.05;1.85;;;;;;;13.34;59.08;97511.81;10609676;27;20127;-67
2023/05/11 01:35:13;;;;;;;3.90;1.95;;;;;;;13.26;59.23;97517.00;10623296;28;20067;-66
2023/05/11 01:40:34;;;;;;;5.25;1.80;;;;;;;13.24;59.30;97512.00;10609521;28;20069;-68
2023/05/11 01:45:58;;;;;;;7.03;1.70;;;;;;;13.29;59.24;97530.47;10608755;28;20524;-68
2023/05/11 01:51:19;;;;;;;2.30;1.75;;;;;;;13.29;59.18;97530.47;10608979;28;20111;-67
2023/05/11 01:56:40;;;;;;;6.72;2.05;;;;;;;13.20;59.67;97523.00;10592902;28;20445;-67
2023/05/11 02:02:01;;;;;;;3.72;2.10;;;;;;;13.13;60.02;97532.41;10593912;28;20074;-68
2023/05/11 02:07:22;;;;;;;6.90;2.10;;;;;;;13.08;60.17;97522.31;10606893;28;20039;-67
2023/05/11 02:12:43;;;;;;;4.53;1.90;;;;;;;13.00;59.87;97533.06;10605806;27;20063;-66
2023/05/11 02:18:04;;;;;;;3.50;2.10;;;;;;;12.92;60.42;97532.63;10612019;27;20131;-67
2023/05/11 02:23:25;;;;;;;4.28;1.95;;;;;;;12.84;60.59;97524.53;10613887;27;20104;-68
2023/05/11 02:28:46;;;;;;;3.65;2.20;;;;;;;12.82;60.38;97525.13;10602132;27;20119;-67
2023/05/11 02:34:22;;;;;;;3.53;1.25;;;;;;;12.78;60.00;97524.91;10630629;27;20063;-68
2023/05/11 02:39:45;;;;;;;3.58;1.60;;;;;;;12.69;60.35;97525.06;10603001;27;20114;-67
2023/05/11 02:45:07;;;;;;;3.38;1.60;;;;;;;12.72;60.17;97526.63;10629790;27;20053;-68
2023/05/11 02:50:29;;;;;;;3.70;1.42;;;;;;;12.72;60.15;97527.38;10586841;27;20067;-68
2023/05/11 02:55:50;;;;;;;3.05;1.65;;;;;;;12.71;59.92;97531.50;10601304;27;20169;-67
2023/05/11 03:01:11;;;;;;;2.83;1.40;;;;;;;12.73;60.19;97537.22;10614704;27;20066;-67
2023/05/11 03:06:34;;;;;;;2.67;1.42;;;;;;;12.72;59.96;97541.38;10614504;27;20096;-68
2023/05/11 03:11:57;;;;;;;3.72;1.50;;;;;;;12.73;59.48;97539.28;10600966;27;20120;-68
2023/05/11 03:17:20;;;;;;;2.45;1.50;;;;;;;12.74;59.76;97541.50;10599992;27;20117;-68
2023/05/11 03:22:41;;;;;;;4.93;1.65;;;;;;;12.77;59.52;97534.66;10599753;27;20100;-68
2023/05/11 03:28:03;;;;;;;6.65;1.67;;;;;;;12.74;59.44;97546.34;10599361;27;20115;-68
2023/05/11 03:33:26;;;;;;;2.60;1.30;;;;;;;12.78;59.65;97546.59;10598682;27;20138;-68
2023/05/11 03:38:47;;;;;;;3.25;1.50;;;;;;;12.79;59.49;97548.78;10597428;27;20065;-68
2023/05/11 03:44:10;;;;;;;3.90;1.40;;;;;;;12.80;59.33;97549.50;10610634;27;20149;-68
2023/05/11 03:49:33;;;;;;;2.67;1.73;;;;;;;12.82;59.14;97544.72;10570881;28;20123;-67
2023/05/11 03:54:53;;;;;;;4.38;1.52;;;;;;;12.84;59.45;97556.06;10570006;28;20506;-67
2023/05/11 04:00:15;;;;;;;3.22;1.60;;;;;;;12.96;59.09;97552.47;10574587;27;20451;-68
2023/05/11 04:05:36;;;;;;;4.65;1.83;;;;;;;13.03;59.15;97549.41;10611026;27;20122;-68
2023/05/11 04:11:01;;;;;;;3.65;1.60;;;;;;;13.14;58.29;97553.47;10597473;27;20457;-67
2023/05/11 04:16:21;;;;;;;4.15;1.77;;;;;;;13.19;58.31;97549.56;10623043;27;20114;-72
2023/05/11 04:21:42;;;;;;;2.85;1.50;;;;;;;13.12;57.78;97540.09;10579023;27;20063;-74
2023/05/11 04:27:03;;;;;;;6.43;1.77;;;;;;;13.25;57.68;97558.31;10592974;27;20143;-73
2023/05/11 04:32:23;;;;;;;4.53;2.03;;;;;;;13.28;57.39;97559.13;10591936;27;20126;-70
2023/05/11 04:37:45;;;;;;;3.90;1.90;;;;;;;13.34;57.70;97554.59;10624628;27;20077;-70
2023/05/11 04:43:06;;;;;;;4.45;1.83;;;;;;;13.39;56.99;97559.06;10610840;27;20477;-70
2023/05/11 04:48:27;;;;;;;3.33;1.60;;;;;;;13.53;57.02;97564.72;10580299;28;20121;-70
2023/05/11 04:53:49;;;;;;;2.97;2.05;;;;;;;13.53;56.37;97570.31;10566037;28;20126;-69
2023/05/11 04:59:11;;;;;;;3.05;1.83;;;;;;;13.52;55.30;97570.94;10596752;27;20435;-70
2023/05/11 05:04:33;;;;;;;3.95;1.80;;;;;;;13.61;55.41;97586.84;10608108;27;20066;-69
2023/05/11 05:09:56;;;;;;;3.00;1.57;;;;;;;13.63;54.80;97570.13;10623756;27;20388;-70
2023/05/11 05:15:16;;;;;;;2.80;1.70;;;;;;;13.68;54.37;97583.00;10609649;27;20070;-71
2023/05/11 05:20:38;;;;;;;4.40;1.50;;;;;;;13.81;53.63;97581.56;10604868;27;20050;-70
2023/05/11 05:25:59;;;;;;;5.18;2.00;;;;;;;13.99;53.89;97588.13;10602630;27;20070;-70
2023/05/11 05:31:20;;;;;;;2.83;1.60;;;;;;;14.21;52.75;97586.47;10588951;27;20061;-70
2023/05/11 05:36:41;;;;;;;2.03;1.45;;;;;;;14.46;52.04;97591.22;10579475;28;20062;-70
2023/05/11 05:42:02;;;;;;;3.80;2.00;;;;;;;14.78;51.62;97602.63;10623439;28;20035;-70
2023/05/11 05:47:24;;;;;;;4.47;1.45;;;;;;;15.13;50.80;97602.19;10598056;27;20110;-71
2023/05/11 05:52:45;;;;;;;4.90;1.42;;;;;;;15.41;49.96;97597.16;10603532;27;20067;-70
2023/05/11 05:58:07;;;;;;;3.33;1.70;;;;;;;15.86;48.93;97608.41;10603497;27;20047;-70
2023/05/11 06:03:28;;;;;;;4.53;1.70;;;;;;;16.37;47.17;97618.31;10632366;27;20039;-71
2023/05/11 06:08:50;;;;;;;4.40;1.67;;;;;;;16.62;46.36;97623.63;10616881;27;20043;-71
2023/05/11 06:14:11;;;;;;;5.93;1.98;;;;;;;17.17;44.48;97626.59;10616608;27;20067;-71
2023/05/11 06:19:33;;;;;;;3.35;1.58;;;;;;;17.51;44.45;97625.78;10588539;27;20043;-71
2023/05/11 06:24:54;;;;;;;4.28;1.50;;;;;;;17.79;43.29;97635.38;10587906;27;20123;-71
2023/05/11 06:30:15;;;;;;;4.75;1.58;;;;;;;19.42;41.56;97621.16;10601742;27;20048;-71
2023/05/11 06:35:40;;;;;;;2.75;1.50;;;;;;;19.93;39.08;97631.19;10589026;27;20074;-71
2023/05/11 06:41:05;;;;;;;3.03;1.60;;;;;;;19.38;38.29;97638.00;10588339;27;20036;-72
2023/05/11 06:46:26;;;;;;;4.45;1.48;;;;;;;18.44;40.31;97623.59;10600975;27;20081;-71
2023/05/11 06:51:47;;;;;;;3.42;1.60;;;;;;;17.72;41.62;97650.63;10615028;27;20039;-71
2023/05/11 06:57:08;;;;;;;3.67;1.63;;;;;;;17.43;42.50;97637.47;10614806;27;20467;-73
2023/05/11 07:02:30;;;;;;;6.47;1.63;;;;;;;17.85;42.58;97646.16;10614333;27;20555;-75
2023/05/11 07:07:51;;;;;;;3.42;1.30;;;;;;;17.94;41.95;97630.97;10600563;27;20119;-71
2023/05/11 07:13:13;;;;;;;3.90;1.23;;;;;;;18.02;42.22;97631.25;10614468;27;20039;-72
2023/05/11 07:18:33;;;;;;;3.65;1.48;;;;;;;18.32;41.53;97634.44;10613990;27;20050;-72
2023/05/11 07:23:54;;;;;;;4.28;1.83;;;;;;;18.66;40.98;97637.06;10628359;27;20070;-69
2023/05/11 07:29:15;;;;;;;4.50;1.60;;;;;;;20.05;39.26;97637.19;10613401;27;20031;-77
2023/05/11 07:34:36;;;;;;;2.78;1.50;;;;;;;20.62;36.77;97644.44;10613659;27;20047;-81
2023/05/11 07:39:57;;;;;;;4.05;1.30;;;;;;;21.86;35.09;97644.63;10613453;27;20050;-74
2023/05/11 07:45:18;;;;;;;2.55;1.30;;;;;;;23.59;31.79;97636.44;10599051;27;20046;-67
2023/05/11 07:50:41;;;;;;;4.68;1.35;;;;;;;25.79;27.96;97646.59;10628138;27;20051;-69
2023/05/11 07:56:02;;;;;;;3.33;1.30;;;;;;;27.18;25.59;97647.78;10626903;27;20070;-67
2023/05/11 08:01:23;;;;;;;3.38;1.10;;;;;;;28.71;23.84;97656.72;10627678;27;20292;-67
2023/05/11 08:06:44;;;;;;;2.33;0.98;;;;;;;29.98;22.04;97644.94;10624806;27;20523;-67
2023/05/11 08:12:05;;;;;;;4.95;1.00;;;;;;;31.12;20.25;97634.81;10623912;27;20120;-68
2023/05/11 08:17:27;;;;;;;4.55;1.10;;;;;;;28.92;22.28;97648.72;10625842;27;20058;-68
2023/05/11 08:22:49;;;;;;;3.08;1.20;;;;;;;29.25;21.54;97652.09;10612065;27;20408;-68
2023/05/11 08:28:11;;;;;;;3.17;1.17;;;;;;;27.41;23.57;97654.22;10612680;27;20043;-71
2023/05/11 08:33:31;;;;;;;2.20;1.08;;;;;;;27.88;24.23;97649.84;10619477;27;20492;-68
2023/05/11 08:38:58;;;;;;;3.22;1.08;;;;;;;26.64;25.29;97646.25;10600189;27;20043;-70
2023/05/11 08:44:19;;;;;;;2.08;1.38;;;;;;;27.71;24.87;97645.63;10620971;27;20050;-69
2023/05/11 08:49:40;;;;;;;4.70;1.05;;;;;;;25.65;26.04;97650.03;10624622;27;20043;-69
2023/05/11 08:55:03;;;;;;;1.52;0.90;;;;;;;24.93;27.87;97640.19;10625312;27;20088;-70
2023/05/11 09:00:24;;;;;;;2.70;0.90;;;;;;;24.20;28.62;97642.94;10624428;27;20481;-70
2023/05/11 09:05:45;;;;;;;2.78;1.17;;;;;;;22.61;29.62;97636.91;10595578;27;20462;-69
2023/05/11 09:11:06;;;;;;;2.92;0.93;;;;;;;21.67;30.81;97645.63;10624092;27;20091;-70
2023/05/11 09:16:28;;;;;;;2.63;0.73;;;;;;;21.35;30.65;97639.91;10592276;27;20036;-66
2023/05/11 09:21:59;;;;;;;5.32;1.00;;;;;;;21.57;30.44;97631.19;10581662;28;20044;-67
2023/05/11 09:27:21;;;;;;;1.05;0.60;;;;;;;22.88;29.01;97626.75;10580997;28;20043;-66
2023/05/11 09:32:48;;;;;;;3.13;0.90;;;;;;;22.70;28.16;97632.09;10580824;27;20490;-64
2023/05/11 09:38:11;;;;;;;3.63;0.75;;;;;;;23.31;27.42;97633.13;10618193;28;20047;-67
2023/05/11 09:43:32;;;;;;;2.50;0.80;;;;;;;23.70;26.32;97626.59;10609109;28;20040;-68
2023/05/11 09:49:00;;;;;;;3.03;0.70;;;;;;;22.35;27.12;97614.38;10613979;28;20409;-68
2023/05/11 09:54:21;;;;;;;2.88;0.93;;;;;;;22.15;27.74;97628.91;10580193;28;20393;-67
2023/05/11 09:59:42;;;;;;;2.22;0.90;;;;;;;22.39;28.48;97636.47;10579205;28;20411;-65
2023/05/11 10:05:11;;;;;;;3.80;0.88;;;;;;;23.33;26.36;97618.91;10593827;28;20035;-70
2023/05/11 10:10:33;;;;;;;0.80;0.60;;;;;;;23.17;25.77;97605.16;10615092;28;20069;-69
2023/05/11 10:15:54;;;;;;;0.95;0.80;;;;;;;22.74;26.30;97598.72;10609060;28;20043;-70
2023/05/11 10:21:15;;;;;;;2.17;0.70;;;;;;;22.96;26.58;97603.38;10603731;28;20400;-70
2023/05/11 10:26:36;;;;;;;3.67;0.80;;;;;;;22.59;26.47;97630.47;10615679;28;20050;-69
2023/05/11 10:31:57;;;;;;;4.97;0.73;;;;;;;22.04;27.29;97630.06;10588989;28;20047;-66
2023/05/11 10:37:19;;;;;;;2.25;0.80;;;;;;;22.66;26.82;97609.94;10587681;28;20098;-66
2023/05/11 10:43:02;;;;;;;3.00;0.85;;;;;;;22.66;26.20;97609.94;10588190;28;20118;-66
2023/05/11 10:48:51;;;;;;;3.03;0.87;;;;;;;22.24;25.59;97598.53;10588024;28;20058;-67
2023/05/11 10:54:31;;;;;;;4.95;0.80;;;;;;;21.32;26.95;97615.69;10587640;28;20305;-66
2023/05/11 11:00:46;;;;;;;3.25;0.60;;;;;;;21.03;27.16;97611.44;10587318;28;20052;-64
2023/05/11 11:06:20;;;;;;;1.63;0.63;;;;;;;21.23;26.46;97594.91;10527621;28;20047;-64
2023/05/11 11:11:45;;;;;;;1.52;0.80;;;;;;;21.02;26.39;97590.84;10586374;28;20138;-65
2023/05/11 11:17:24;;;;;;;2.63;0.60;;;;;;;21.35;26.55;97600.91;10586233;28;20040;-65
2023/05/11 11:22:45;;;;;;;2.67;0.70;;;;;;;21.58;26.20;97612.75;10585482;28;20097;-66
2023/05/11 11:28:07;;;;;;;2.35;0.50;;;;;;;21.89;26.12;97602.75;10585622;28;20055;-65
2023/05/11 11:33:28;;;;;;;2.88;0.80;;;;;;;21.53;26.94;97605.56;10586231;28;20059;-65
2023/05/11 11:39:01;;;;;;;1.65;0.60;;;;;;;21.37;27.00;97623.66;10585067;28;20040;-65
2023/05/11 11:44:22;;;;;;;1.05;0.60;;;;;;;21.61;26.56;97620.63;10584593;28;20444;-64
2023/05/11 11:49:52;;;;;;;1.23;0.50;;;;;;;21.51;26.39;97625.34;10585371;28;20101;-65
2023/05/11 11:55:20;;;;;;;1.40;0.68;;;;;;;21.75;25.77;97608.16;10571159;28;20040;-65
2023/05/11 12:00:41;;;;;;;4.95;0.95;;;;;;;22.49;25.31;97611.81;10570040;28;20115;-68
2023/05/11 12:06:04;;;;;;;2.55;0.70;;;;;;;23.12;24.49;97606.50;10569622;28;20444;-67
2023/05/11 12:11:26;;;;;;;1.48;0.50;;;;;;;23.24;23.98;97620.91;10585397;28;20040;-68
2023/05/11 12:17:03;;;;;;;2.28;0.60;;;;;;;22.48;25.05;97613.19;10569200;28;20044;-68
2023/05/11 12:22:24;;;;;;;3.95;0.65;;;;;;;22.84;24.07;97626.66;10584042;28;20059;-68
2023/05/11 12:27:54;;;;;;;3.38;0.73;;;;;;;22.54;24.68;97615.44;10582992;28;20474;-67
2023/05/11 12:33:15;;;;;;;2.08;0.80;;;;;;;22.37;24.17;97596.63;10582466;28;20051;-68
2023/05/11 12:38:42;;;;;;;2.45;0.68;;;;;;;22.00;24.45;97590.94;10582810;28;20044;-68
2023/05/11 12:44:04;;;;;;;2.00;0.60;;;;;;;22.31;24.83;97593.69;10582289;28;20055;-68
2023/05/11 12:49:26;;;;;;;1.67;0.55;;;;;;;22.16;24.75;97582.03;10567995;28;20048;-68
2023/05/11 12:54:50;;;;;;;1.30;0.55;;;;;;;21.78;25.41;97590.47;10582875;28;20145;-68
2023/05/11 13:00:13;;;;;;;3.33;0.85;;;;;;;21.36;26.65;97607.28;10553403;28;20039;-68
2023/05/11 13:05:34;;;;;;;;;;;;;;;21.61;27.11;97617.06;10582067;28;20063;-68
2023/05/11 13:10:56;;;;;;;3.78;0.60;;;;;;;21.99;26.92;97595.16;10580837;28;19927;-68
2023/05/11 13:16:27;;;;;;;1.42;0.75;;;;;;;21.25;27.25;97606.31;10580997;28;20040;-66
2023/05/11 13:21:49;;;;;;;2.78;0.70;;;;;;;20.49;28.60;97603.00;10581572;28;20115;-65
2023/05/11 13:27:09;;;;;;;2.35;0.80;;;;;;;20.19;29.34;97592.28;10581669;28;20473;-68
2023/05/11 13:32:30;;;;;;;3.40;0.80;;;;;;;20.49;28.99;97595.22;10581529;28;20550;-68
2023/05/11 13:37:52;;;;;;;5.13;0.70;;;;;;;20.61;27.59;97597.66;10581427;28;20051;-68
2023/05/11 13:43:15;;;;;;;3.75;0.65;;;;;;;20.67;27.94;97592.13;10581455;28;20046;-68
2023/05/11 13:48:36;;;;;;;2.58;0.85;;;;;;;20.72;27.77;97587.28;10581071;28;20047;-68
2023/05/11 13:53:58;;;;;;;4.18;0.80;;;;;;;20.34;28.11;97586.97;10565805;28;20389;-67
2023/05/11 13:59:18;;;;;;;3.00;1.10;;;;;;;20.11;28.27;97611.16;10579708;28;20054;-68
2023/05/11 14:04:40;;;;;;;3.03;0.77;;;;;;;19.92;29.22;97584.41;10579791;28;20393;-68
2023/05/11 14:10:01;;;;;;;2.90;0.80;;;;;;;19.50;30.49;97589.53;10585685;28;20036;-68
2023/05/11 14:15:22;;;;;;;3.17;0.80;;;;;;;19.22;31.03;97586.56;10573768;28;20078;-67
2023/05/11 14:20:43;;;;;;;2.50;0.85;;;;;;;19.23;31.11;97579.53;10588903;28;20110;-68
2023/05/11 14:26:04;;;;;;;1.88;0.60;;;;;;;19.10;31.67;97592.53;10588733;28;20039;-68
2023/05/11 14:31:24;;;;;;;4.93;0.95;;;;;;;18.83;32.49;97591.00;10573411;28;20082;-68
2023/05/11 14:36:46;;;;;;;1.92;1.00;;;;;;;18.75;32.50;97605.59;10588231;28;20040;-67
2023/05/11 14:42:07;;;;;;;2.35;1.08;;;;;;;18.49;33.04;97596.91;10587307;28;20405;-68
2023/05/11 14:47:28;;;;;;;2.85;1.15;;;;;;;18.49;32.54;97596.19;10587349;28;20092;-67
2023/05/11 14:52:49;;;;;;;3.25;1.10;;;;;;;18.85;32.40;97582.56;10587704;28;20400;-68
2023/05/11 14:58:10;;;;;;;2.25;1.00;;;;;;;19.12;31.95;97601.84;10587446;28;20043;-68
2023/05/11 15:03:31;;;;;;;4.70;1.13;;;;;;;19.17;32.10;97589.25;10586384;28;20469;-68
2023/05/11 15:08:52;;;;;;;3.72;1.00;;;;;;;19.28;32.06;97595.94;10586090;28;20039;-68
2023/05/11 15:14:12;;;;;;;3.67;1.17;;;;;;;19.11;33.08;97588.38;10586833;28;20063;-68
2023/05/11 15:19:33;;;;;;;6.78;1.08;;;;;;;19.11;33.94;97588.38;10585955;28;20055;-67
2023/05/11 15:24:54;;;;;;;3.50;1.15;;;;;;;19.23;34.25;97594.41;10571558;28;20051;-68
2023/05/11 15:30:15;;;;;;;2.83;0.80;;;;;;;19.18;33.99;97601.28;10585090;28;20055;-67
2023/05/11 15:35:36;;;;;;;3.78;1.15;;;;;;;18.68;33.74;97594.72;10570859;28;20107;-67
2023/05/11 15:40:57;;;;;;;1.52;0.98;;;;;;;18.66;34.51;97606.69;10556469;28;20457;-66
2023/05/11 15:46:18;;;;;;;3.15;1.30;;;;;;;18.57;34.73;97607.78;10584821;28;20409;-68
2023/05/11 15:51:40;;;;;;;5.32;1.05;;;;;;;18.55;34.67;97611.25;10585509;28;20089;-69
2023/05/11 15:57:01;;;;;;;2.55;1.05;;;;;;;18.52;33.99;97611.81;10585529;28;20496;-68
2023/05/11 16:02:22;;;;;;;4.25;1.00;;;;;;;18.45;34.32;97613.00;10585452;28;20050;-68
2023/05/11 16:07:43;;;;;;;1.60;0.93;;;;;;;18.30;34.69;97614.59;10584850;28;20043;-66
2023/05/11 16:13:04;;;;;;;5.47;1.08;;;;;;;18.23;35.07;97608.00;10583738;28;20040;-67
2023/05/11 16:18:25;;;;;;;3.30;1.00;;;;;;;18.34;35.37;97611.94;10584288;28;20127;-67
2023/05/11 16:23:45;;;;;;;3.95;1.15;;;;;;;18.26;35.37;97620.13;10569261;28;20048;-66
2023/05/11 16:29:06;;;;;;;4.18;0.98;;;;;;;17.94;35.54;97614.75;10568533;28;20053;-67
2023/05/11 16:34:27;;;;;;;3.38;1.00;;;;;;;17.75;36.14;97632.38;10582441;28;20054;-67
2023/05/11 16:39:49;;;;;;;4.03;1.20;;;;;;;17.60;36.76;97627.56;10582600;28;20123;-66
2023/05/11 16:45:11;;;;;;;2.03;1.17;;;;;;;17.52;36.95;97627.25;10582563;28;20061;-67
2023/05/11 16:50:32;;;;;;;2.20;1.05;;;;;;;17.50;37.06;97622.25;10568569;28;20063;-67
2023/05/11 16:55:54;;;;;;;2.42;1.20;;;;;;;17.51;36.78;97631.44;10583012;28;20118;-67
2023/05/11 17:01:14;;;;;;;2.80;1.10;;;;;;;17.49;36.55;97628.53;10582033;28;20396;-67
2023/05/11 17:06:35;;;;;;;4.03;1.20;;;;;;;17.52;36.48;97635.72;10582591;28;20067;-67
2023/05/11 17:11:56;;;;;;;3.08;1.00;;;;;;;17.48;36.41;97621.44;10567453;28;20123;-67
2023/05/11 17:17:16;;;;;;;2.22;1.10;;;;;;;17.44;36.08;97630.47;10567125;28;20035;-67
2023/05/11 17:22:37;;;;;;;2.08;0.88;;;;;;;17.24;35.37;97627.56;10581398;28;20065;-66
2023/05/11 17:27:58;;;;;;;4.18;1.38;;;;;;;17.18;34.87;97633.00;10581469;28;20051;-66
2023/05/11 17:33:18;;;;;;;3.22;1.33;;;;;;;17.04;34.94;97654.97;10566923;28;20505;-67
2023/05/11 17:38:39;;;;;;;1.92;0.95;;;;;;;16.94;35.25;97644.00;10581095;28;20471;-67
2023/05/11 17:44:00;;;;;;;2.50;0.77;;;;;;;16.90;35.46;97652.31;10580625;28;20059;-66
2023/05/11 17:49:20;;;;;;;1.55;1.00;;;;;;;16.78;35.69;97646.88;10581644;28;20064;-67
2023/05/11 17:54:41;;;;;;;3.58;1.20;;;;;;;16.77;35.99;97647.50;10581439;28;20063;-66
2023/05/11 18:00:02;;;;;;;6.35;1.23;;;;;;;16.66;36.37;97654.78;10581722;28;20071;-68
2023/05/11 18:05:24;;;;;;;1.50;1.10;;;;;;;16.62;36.58;97656.72;10580514;28;20044;-67
2023/05/11 18:10:56;;;;;;;2.60;1.08;;;;;;;16.51;36.64;97652.75;10581290;28;20048;-67
2023/05/11 18:16:17;;;;;;;3.65;1.20;;;;;;;16.42;37.09;97657.31;10581209;28;20047;-67
2023/05/11 18:21:39;;;;;;;2.38;1.20;;;;;;;16.34;37.46;97662.59;10579944;28;20039;-66
2023/05/11 18:27:01;;;;;;;5.10;1.58;;;;;;;16.26;38.01;97662.94;10580024;28;20075;-67
2023/05/11 18:32:22;;;;;;;3.63;1.25;;;;;;;16.18;38.01;97668.22;10579639;28;20052;-66
2023/05/11 18:37:43;;;;;;;5.05;1.38;;;;;;;16.09;38.32;97666.41;10579749;28;20047;-67
2023/05/11 18:43:06;;;;;;;6.40;1.30;;;;;;;16.10;38.59;97664.31;10552407;28;20506;-67
2023/05/11 18:48:27;;;;;;;2.45;1.63;;;;;;;16.09;38.46;97660.78;10580625;28;20405;-67
2023/05/11 18:53:49;;;;;;;3.67;1.67;;;;;;;16.06;38.84;97673.31;10580910;28;20043;-67
2023/05/11 18:59:09;;;;;;;5.53;1.58;;;;;;;16.03;38.86;97672.50;10586866;28;20051;-67
2023/05/11 19:04:30;;;;;;;7.15;1.85;;;;;;;15.99;38.99;97675.13;10572606;28;20063;-66
2023/05/11 19:09:51;;;;;;;3.63;1.63;;;;;;;15.94;39.13;97672.78;10572523;28;20067;-67
2023/05/11 19:15:12;;;;;;;5.38;1.63;;;;;;;15.92;39.15;97683.91;10587601;28;20040;-66
2023/05/11 19:20:33;;;;;;;5.00;2.30;;;;;;;15.87;39.47;97685.84;10587250;28;20370;-66
2023/05/11 19:25:54;;;;;;;3.42;1.63;;;;;;;15.86;39.36;97698.47;10572039;28;20473;-67
2023/05/11 19:31:15;;;;;;;3.08;1.83;;;;;;;15.82;40.52;97703.16;10586044;28;20126;-67
2023/05/11 19:36:35;;;;;;;10.13;2.63;;;;;;;15.77;40.25;97704.34;10585227;28;20088;-66
2023/05/11 19:41:56;;;;;;;4.28;2.40;;;;;;;15.73;40.24;97711.25;10585331;28;20115;-67
2023/05/11 19:47:17;;;;;;;6.53;2.25;;;;;;;15.69;40.72;97708.22;10585875;28;20063;-67
2023/05/11 19:52:37;;;;;;;3.70;1.67;;;;;;;15.64;40.74;97703.78;10584853;28;20044;-67
2023/05/11 19:57:58;;;;;;;5.97;2.30;;;;;;;15.62;40.65;97700.13;10584708;28;20067;-67
2023/05/11 20:03:20;;;;;;;3.38;1.70;;;;;;;15.55;41.20;97701.91;10585185;28;20066;-66
2023/05/11 20:08:41;;;;;;;6.03;2.30;;;;;;;15.52;41.30;97703.16;10584186;28;20043;-67
2023/05/11 20:14:03;;;;;;;5.75;1.90;;;;;;;15.46;41.68;97705.72;10584596;28;20042;-67
2023/05/11 20:19:24;;;;;;;5.05;2.53;;;;;;;15.42;41.90;97711.13;10570205;28;20039;-67
2023/05/11 20:24:45;;;;;;;3.42;2.10;;;;;;;15.39;41.77;97703.94;10583380;28;20393;-66
2023/05/11 20:30:06;;;;;;;4.18;2.08;;;;;;;15.36;42.04;97700.31;10584306;28;20059;-66
2023/05/11 20:35:27;;;;;;;3.50;2.08;;;;;;;15.36;42.00;97703.13;10584161;28;20124;-67
2023/05/11 20:40:48;;;;;;;6.28;2.42;;;;;;;15.37;42.35;97704.59;10568656;28;20043;-67
2023/05/11 20:46:10;;;;;;;3.60;1.83;;;;;;;15.39;42.04;97699.06;10568401;28;20123;-66
2023/05/11 20:51:32;;;;;;;4.63;2.20;;;;;;;15.41;42.36;97695.59;10582426;28;20465;-66
2023/05/11 20:56:52;;;;;;;4.55;2.28;;;;;;;15.39;42.78;97696.25;10583236;28;20122;-67
2023/05/11 21:02:13;;;;;;;7.93;2.40;;;;;;;15.33;42.72;97681.88;10581990;28;20042;-67
2023/05/11 21:07:33;;;;;;;4.65;2.45;;;;;;;15.31;42.74;97695.13;10581904;28;20044;-66
2023/05/11 21:12:54;;;;;;;6.35;1.90;;;;;;;15.32;42.78;97686.06;10583297;28;20153;-67
2023/05/11 21:18:15;;;;;;;5.78;2.10;;;;;;;15.32;43.18;97686.06;10581965;28;20503;-67
2023/05/11 21:23:35;;;;;;;4.18;2.38;;;;;;;15.24;42.75;97684.94;10581570;28;20111;-66
2023/05/11 21:28:56;;;;;;;4.22;2.20;;;;;;;15.20;43.19;97679.13;10566980;28;20077;-67
2023/05/11 21:34:17;;;;;;;5.25;2.70;;;;;;;15.14;43.26;97685.88;10581786;28;20453;-66
2023/05/11 21:39:37;;;;;;;13.35;2.97;;;;;;;15.08;43.60;97685.63;10580961;28;20513;-66
2023/05/11 21:44:58;;;;;;;5.15;2.83;;;;;;;15.02;43.96;97696.53;10580964;28;20130;-67
2023/05/11 21:50:21;;;;;;;4.85;2.53;;;;;;;14.91;44.17;97694.59;10581045;28;20110;-67
2023/05/11 21:55:42;;;;;;;;;;;;;;;14.78;44.65;97686.91;10581484;28;20115;-67
2023/05/11 22:01:03;;;;;;;3.47;2.17;;;;;;;14.64;44.60;97689.72;10581692;28;20344;-67
2023/05/11 22:06:24;;;;;;;5.63;2.75;;;;;;;14.53;45.35;97693.38;10581811;28;20119;-67
2023/05/11 22:11:45;;;;;;;4.30;2.53;;;;;;;14.49;45.60;97693.19;10581337;28;20114;-67
2023/05/11 22:17:05;;;;;;;4.05;2.60;;;;;;;14.48;45.66;97697.34;10580172;28;20116;-66
2023/05/11 22:22:26;;;;;;;3.75;2.38;;;;;;;14.47;45.52;97699.41;10580312;28;20181;-66
2023/05/11 22:27:47;;;;;;;6.47;3.03;;;;;;;14.52;45.63;97694.75;10581155;28;20209;-67
2023/05/11 22:33:07;;;;;;;4.63;2.60;;;;;;;14.53;45.97;97701.81;10573059;28;20135;-66
2023/05/11 22:38:28;;;;;;;4.65;2.88;;;;;;;14.50;46.21;97703.78;10588885;28;20382;-67
2023/05/11 22:43:50;;;;;;;5.55;2.70;;;;;;;14.51;46.54;97702.44;10588044;28;20374;-67
2023/05/11 22:49:11;;;;;;;8.18;3.25;;;;;;;14.51;46.57;97694.00;10588611;28;20043;-67
2023/05/11 22:54:31;;;;;;;9.15;3.92;;;;;;;14.58;46.83;97706.28;10587810;28;20189;-68
2023/05/11 22:59:51;;;;;;;5.72;3.05;;;;;;;14.58;46.81;97698.59;10588086;28;20434;-67
2023/05/11 23:05:12;;;;;;;7.75;3.63;;;;;;;14.57;46.83;97702.00;10587631;28;20115;-67
2023/05/11 23:10:33;;;;;;;7.22;3.75;;;;;;;14.55;47.02;97694.19;10587623;28;20115;-66
2023/05/11 23:15:54;;;;;;;7.50;3.88;;;;;;;14.52;47.06;97694.75;10572050;28;20169;-67
2023/05/11 23:21:14;;;;;;;8.10;3.80;;;;;;;14.47;47.73;97705.00;10587204;28;20122;-67
2023/05/11 23:26:35;;;;;;;10.73;3.13;;;;;;;14.41;47.43;97707.50;10586016;28;20120;-66
2023/05/11 23:31:55;;;;;;;7.63;3.08;;;;;;;14.37;47.79;97698.84;10585748;28;20122;-67
2023/05/11 23:37:16;;;;;;;5.30;3.42;;;;;;;14.29;47.80;97701.25;10585696;28;20115;-67
2023/05/11 23:42:37;;;;;;;5.60;3.15;;;;;;;14.24;47.95;97691.16;10585737;28;20530;-67
2023/05/11 23:47:58;;;;;;;6.55;3.08;;;;;;;14.25;48.18;97696.16;10585167;28;20468;-66
2023/05/11 23:53:19;;;;;;;6.22;2.92;;;;;;;14.25;48.13;97690.53;10585035;28;20118;-67
2023/05/11 23:58:44;;;;;;;7.13;2.85;;;;;;;14.20;48.21;97685.34;10585498;28;20044;-67
